Search for airport 
image banner adimage banner adimage banner ad
image banner ad

CL07 - Queen Mary

Located in Long Beach, United States

ICAO - CL07, IATA -

Data provided by Airmate  

General information

Coordinates: N33°44'57" W118°11'25"
Elevation is 14 feet MSL.
Magnetic variation is 13° East
View others Airports in California

Operational data

Special qualification required
Current time UTC:
Current local time:
METAR: KLGB 211153Z AUTO 00000KT 7SM OVC010 17/14 A2994 RMK AO2 SLP139 T01670144 10172 20167 53008 $
TAF: KLGB 211124Z 2112/2212 VRB03KT P6SM OVC011 FM211800 21007KT P6SM SKC FM212230 30010KT P6SM SKC FM220500 VRB03KT P6SM SKC FM220900 VRB03KT P6SM OVC012
View NOTAMs / SUP AIP / TFR affecting this airport [VIEW]
Communications frequencies: [VIEW]

Runways:

Airport contact information

Address: Long Beach United States

Satellite view of CL07